Time;durP1;ratioP1;P1;durP2;ratioP2;P2;SDS_P1;SDS_P2;PMS_P1;PMS_P2;Temp;Humidity;BMP_temperature;BMP_pressure;BME280_temperature;BME280_humidity;BME280_pressure;Samples;Min_cycle;Max_cycle;Signal;HPM_P1;HPM_P2
2023/04/11 00:00:07;;;;;;;;;;;6.90;99.90;;;;;;5058248;28;19924;-76
2023/04/11 00:02:37;;;;;;;;;;;6.90;99.90;;;;;;5074608;28;19947;-76
2023/04/11 00:05:04;;;;;;;;;;;6.90;99.90;;;;;;5074732;28;19939;-76
2023/04/11 00:07:30;;;;;;;;;;;6.90;99.90;;;;;;5073852;28;19928;-76
2023/04/11 00:09:55;;;;;;;;;;;6.80;99.90;;;;;;5058264;28;20365;-76
2023/04/11 00:12:21;;;;;;;;;;;6.80;99.90;;;;;;5091426;28;20336;-76
2023/04/11 00:14:47;;;;;;;;;;;6.80;99.90;;;;;;5076230;28;19928;-76
2023/04/11 00:17:14;;;;;;;;;;;6.80;99.90;;;;;;5077215;28;20395;-76
2023/04/11 00:19:42;;;;;;;;;;;6.80;99.90;;;;;;5079406;28;19924;-77
2023/04/11 00:22:08;;;;;;;;;;;6.80;99.90;;;;;;5074768;28;19928;-76
2023/04/11 00:24:33;;;;;;;;;;;6.80;99.90;;;;;;5093417;28;19956;-76
2023/04/11 00:27:00;;;;;;;;;;;6.70;99.90;;;;;;5077832;28;19946;-76
2023/04/11 00:29:26;;;;;;;;;;;6.70;99.90;;;;;;5094371;28;20380;-76
2023/04/11 00:31:54;;;;;;;;;;;6.60;99.90;;;;;;5058328;28;19938;-76
2023/04/11 00:34:22;;;;;;;;;;;6.60;99.90;;;;;;5054680;28;21440;-76
2023/04/11 00:36:48;;;;;;;;;;;6.60;99.90;;;;;;5058803;28;19951;-76
2023/04/11 00:39:17;;;;;;;;;;;6.70;99.90;;;;;;5057710;28;19928;-76
2023/04/11 00:41:43;;;;;;;;;;;6.70;99.90;;;;;;5075841;28;20290;-76
2023/04/11 00:44:09;;;;;;;;;;;6.70;99.90;;;;;;5057277;28;19924;-76
2023/04/11 00:46:34;;;;;;;;;;;6.70;99.90;;;;;;5073825;28;19924;-75
2023/04/11 00:49:02;;;;;;;;;;;6.80;99.90;;;;;;5055357;28;20212;-75
2023/04/11 00:51:27;;;;;;;;;;;6.80;99.90;;;;;;5047098;28;19962;-75
2023/04/11 00:53:53;;;;;;;;;;;6.80;99.90;;;;;;5089605;28;19984;-76
2023/04/11 00:56:19;;;;;;;;;;;6.80;99.90;;;;;;5056320;28;19924;-76
2023/04/11 00:58:45;;;;;;;;;;;6.80;99.90;;;;;;5075474;28;19928;-76
2023/04/11 01:01:10;;;;;;;;;;;6.70;99.90;;;;;;5072618;28;19932;-76
2023/04/11 01:03:40;;;;;;;;;;;6.70;99.90;;;;;;5057391;28;20065;-77
2023/04/11 01:06:06;;;;;;;;;;;6.70;99.90;;;;;;5089247;28;19943;-77
2023/04/11 01:08:33;;;;;;;;;;;6.80;99.90;;;;;;5071491;28;19928;-77
2023/04/11 01:10:59;;;;;;;;;;;6.70;99.90;;;;;;5091500;28;20011;-77
2023/04/11 01:13:25;;;;;;;;;;;6.70;99.90;;;;;;5079698;28;19999;-77
2023/04/11 01:15:50;;;;;;;;;;;6.70;99.90;;;;;;5061787;28;19924;-77
2023/04/11 01:18:16;;;;;;;;;;;6.70;99.90;;;;;;5079301;28;20421;-78
2023/04/11 01:20:42;;;;;;;;;;;6.70;99.90;;;;;;5078474;28;20318;-77
2023/04/11 01:23:09;;;;;;;;;;;6.60;99.90;;;;;;5078396;28;19928;-77
2023/04/11 01:25:34;;;;;;;;;;;6.60;99.90;;;;;;5075821;28;19924;-77
2023/04/11 01:28:00;;;;;;;;;;;6.60;99.90;;;;;;5053318;28;19947;-77
2023/04/11 01:30:26;;;;;;;;;;;6.60;99.90;;;;;;5061277;28;19968;-77
2023/04/11 01:32:51;;;;;;;;;;;6.60;99.90;;;;;;5079920;28;19931;-77
2023/04/11 01:35:17;;;;;;;;;;;6.60;99.90;;;;;;5078117;28;19983;-76
2023/04/11 01:37:43;;;;;;;;;;;6.60;99.90;;;;;;5079209;28;19924;-76
2023/04/11 01:40:08;;;;;;;;;;;6.60;99.90;;;;;;5062423;28;19956;-74
2023/04/11 01:42:34;;;;;;;;;;;6.60;99.90;;;;;;5070430;28;19936;-73
2023/04/11 01:45:01;;;;;;;;;;;6.70;99.90;;;;;;5073360;28;19928;-74
2023/04/11 01:47:27;;;;;;;;;;;6.70;99.90;;;;;;5071755;28;20003;-74
2023/04/11 01:49:52;;;;;;;;;;;6.70;99.90;;;;;;5074401;28;20001;-75
2023/04/11 01:52:18;;;;;;;;;;;6.70;99.90;;;;;;5106808;28;19924;-75
2023/04/11 01:54:44;;;;;;;;;;;6.70;99.90;;;;;;5072205;28;19935;-76
2023/04/11 01:57:09;;;;;;;;;;;6.70;99.90;;;;;;5055333;28;19951;-76
2023/04/11 01:59:35;;;;;;;;;;;6.70;99.90;;;;;;5095503;28;19931;-76
2023/04/11 02:02:00;;;;;;;;;;;6.80;99.90;;;;;;5062388;28;19924;-75
2023/04/11 02:04:26;;;;;;;;;;;6.80;99.90;;;;;;5078911;28;20044;-76
2023/04/11 02:06:52;;;;;;;;;;;6.80;99.90;;;;;;5086948;28;20413;-76
2023/04/11 02:09:17;;;;;;;;;;;6.80;99.90;;;;;;5063066;28;19928;-76
2023/04/11 02:11:43;;;;;;;;;;;6.80;99.90;;;;;;5060289;28;19939;-76
2023/04/11 02:14:08;;;;;;;;;;;6.80;99.90;;;;;;5077487;28;19928;-76
2023/04/11 02:16:48;;;;;;;;;;;6.80;99.90;;;;;;5078165;28;19981;-76
2023/04/11 02:19:13;;;;;;;;;;;6.90;99.90;;;;;;5092567;28;19924;-76
2023/04/11 02:21:39;;;;;;;;;;;6.90;99.90;;;;;;5078371;28;19928;-76
2023/04/11 02:24:05;;;;;;;;;;;6.90;99.90;;;;;;5077692;28;19924;-74
2023/04/11 02:26:30;;;;;;;;;;;6.90;99.90;;;;;;5079700;28;19928;-75
2023/04/11 02:28:56;;;;;;;;;;;6.90;99.90;;;;;;5082069;28;19939;-75
2023/04/11 02:31:21;;;;;;;;;;;7.00;99.90;;;;;;5083202;28;19959;-76
2023/04/11 02:33:47;;;;;;;;;;;7.00;99.90;;;;;;5100028;28;19979;-76
2023/04/11 02:36:13;;;;;;;;;;;7.00;99.90;;;;;;5082883;28;19924;-76
2023/04/11 02:38:38;;;;;;;;;;;7.10;99.90;;;;;;5075468;28;19931;-75
2023/04/11 02:41:04;;;;;;;;;;;7.10;99.90;;;;;;5062811;28;19994;-75
2023/04/11 02:43:30;;;;;;;;;;;7.10;99.90;;;;;;5074568;28;19931;-76
2023/04/11 02:45:56;;;;;;;;;;;7.10;99.90;;;;;;5062143;28;19956;-76
2023/04/11 02:48:21;;;;;;;;;;;7.20;99.90;;;;;;5076044;28;19932;-76
2023/04/11 02:50:47;;;;;;;;;;;7.20;99.90;;;;;;5093281;28;19968;-76
2023/04/11 02:53:13;;;;;;;;;;;7.30;99.90;;;;;;5061069;28;20010;-76
2023/04/11 02:55:40;;;;;;;;;;;7.30;99.90;;;;;;5061310;28;19932;-77
2023/04/11 02:58:06;;;;;;;;;;;7.40;99.90;;;;;;5060384;28;19924;-77
2023/04/11 03:00:31;;;;;;;;;;;7.40;99.90;;;;;;5076747;28;21496;-77
2023/04/11 03:02:57;;;;;;;;;;;7.50;99.90;;;;;;5092296;28;20002;-77
2023/04/11 03:05:23;;;;;;;;;;;7.50;99.90;;;;;;5085339;28;19924;-77
2023/04/11 03:07:49;;;;;;;;;;;7.50;99.90;;;;;;5076216;28;19950;-77
2023/04/11 03:10:14;;;;;;;;;;;7.50;99.90;;;;;;5075854;28;19963;-77
2023/04/11 03:12:40;;;;;;;;;;;7.50;99.90;;;;;;5082294;28;20390;-77
2023/04/11 03:15:06;;;;;;;;;;;7.50;99.90;;;;;;5082255;28;20277;-77
2023/04/11 03:17:32;;;;;;;;;;;7.50;99.90;;;;;;5061840;28;19925;-77
2023/04/11 03:19:57;;;;;;;;;;;7.60;99.90;;;;;;5059786;28;19979;-77
2023/04/11 03:22:23;;;;;;;;;;;7.60;99.90;;;;;;5074165;28;20636;-77
2023/04/11 03:24:48;;;;;;;;;;;7.60;99.90;;;;;;5081881;28;19930;-78
2023/04/11 03:27:14;;;;;;;;;;;7.60;99.90;;;;;;5097833;28;19931;-77
2023/04/11 03:29:40;;;;;;;;;;;7.70;99.90;;;;;;5099711;28;20022;-77
2023/04/11 03:32:05;;;;;;;;;;;7.70;99.90;;;;;;5097665;28;20371;-76
2023/04/11 03:34:31;;;;;;;;;;;7.70;99.90;;;;;;5055642;28;19924;-77
2023/04/11 03:36:56;;;;;;;;;;;7.80;99.90;;;;;;5059482;28;20014;-77
2023/04/11 03:39:22;;;;;;;;;;;7.80;99.90;;;;;;5059657;28;19973;-77
2023/04/11 03:41:48;;;;;;;;;;;7.80;99.90;;;;;;5091785;28;20875;-77
2023/04/11 03:44:14;;;;;;;;;;;7.80;99.90;;;;;;5080413;28;19931;-77
2023/04/11 03:46:39;;;;;;;;;;;7.80;99.90;;;;;;5076791;28;19924;-78
2023/04/11 03:49:05;;;;;;;;;;;7.80;99.90;;;;;;5075677;28;20371;-78
2023/04/11 03:51:31;;;;;;;;;;;7.80;99.90;;;;;;5094243;28;19928;-77
2023/04/11 03:53:57;;;;;;;;;;;7.80;99.90;;;;;;5075425;28;19938;-77
2023/04/11 03:56:22;;;;;;;;;;;7.90;99.90;;;;;;5091259;28;19971;-77
2023/04/11 03:58:48;;;;;;;;;;;7.80;99.90;;;;;;5056805;28;19924;-78
2023/04/11 04:01:13;;;;;;;;;;;7.90;99.90;;;;;;5058589;28;19924;-78
2023/04/11 04:03:39;;;;;;;;;;;7.80;99.90;;;;;;5056541;28;19994;-78
2023/04/11 04:06:05;;;;;;;;;;;7.90;99.90;;;;;;5060163;28;20496;-78
2023/04/11 04:08:30;;;;;;;;;;;7.80;99.90;;;;;;5057598;28;19927;-77
2023/04/11 04:10:56;;;;;;;;;;;7.90;99.90;;;;;;5059862;28;19962;-77
2023/04/11 04:13:22;;;;;;;;;;;7.90;99.90;;;;;;5074488;28;19940;-77
2023/04/11 04:15:50;;;;;;;;;;;7.90;99.90;;;;;;5076278;28;19931;-77
2023/04/11 04:18:15;;;;;;;;;;;7.90;99.90;;;;;;5091444;28;19924;-77
2023/04/11 04:20:41;;;;;;;;;;;7.90;99.90;;;;;;5075443;28;19930;-77
2023/04/11 04:23:07;;;;;;;;;;;7.90;99.90;;;;;;5074987;28;19931;-76
2023/04/11 04:25:32;;;;;;;;;;;7.90;99.90;;;;;;5075686;28;19938;-77
2023/04/11 04:27:59;;;;;;;;;;;7.90;99.90;;;;;;5076393;28;19949;-77
2023/04/11 04:30:27;;;;;;;;;;;7.90;99.90;;;;;;5080649;28;19966;-78
2023/04/11 04:32:57;;;;;;;;;;;7.90;99.90;;;;;;5090744;28;19985;-77
2023/04/11 04:35:24;;;;;;;;;;;7.90;99.90;;;;;;5058770;28;20287;-77
2023/04/11 04:37:49;;;;;;;;;;;7.90;99.90;;;;;;5076102;28;19924;-77
2023/04/11 04:40:16;;;;;;;;;;;7.90;99.90;;;;;;5058448;28;19932;-77
2023/04/11 04:42:42;;;;;;;;;;;7.90;99.90;;;;;;5075051;28;19939;-77
2023/04/11 04:45:08;;;;;;;;;;;7.90;99.90;;;;;;5055597;28;19924;-77
2023/04/11 04:47:35;;;;;;;;;;;7.90;99.90;;;;;;5075038;28;19970;-76
2023/04/11 04:50:00;;;;;;;;;;;7.90;99.90;;;;;;5076080;28;19936;-77
2023/04/11 04:52:27;;;;;;;;;;;7.80;99.90;;;;;;5074854;28;19935;-77
2023/04/11 04:54:56;;;;;;;;;;;7.80;99.90;;;;;;5055499;28;19924;-77
2023/04/11 04:57:22;;;;;;;;;;;7.80;99.90;;;;;;5074228;28;19983;-77
2023/04/11 04:59:48;;;;;;;;;;;7.80;99.90;;;;;;5091568;28;19954;-77
2023/04/11 05:02:15;;;;;;;;;;;7.80;99.90;;;;;;5073548;28;19932;-76
2023/04/11 05:04:41;;;;;;;;;;;7.70;99.90;;;;;;5088853;28;20419;-77
2023/04/11 05:07:07;;;;;;;;;;;7.70;99.90;;;;;;5057325;28;19924;-77
2023/04/11 05:09:32;;;;;;;;;;;7.70;99.90;;;;;;5075293;28;20339;-76
2023/04/11 05:11:58;;;;;;;;;;;7.70;99.90;;;;;;5095675;28;19991;-76
2023/04/11 05:14:23;;;;;;;;;;;7.80;99.90;;;;;;5079785;28;19931;-76
2023/04/11 05:16:50;;;;;;;;;;;7.70;99.90;;;;;;5079017;28;19978;-76
2023/04/11 05:19:15;;;;;;;;;;;7.70;99.90;;;;;;5079075;28;19924;-76
2023/04/11 05:21:41;;;;;;;;;;;7.80;99.90;;;;;;5060885;28;20395;-76
2023/04/11 05:24:06;;;;;;;;;;;7.80;99.90;;;;;;5072458;28;19928;-76
2023/04/11 05:26:32;;;;;;;;;;;7.80;99.90;;;;;;5061949;28;19932;-76
2023/04/11 05:28:58;;;;;;;;;;;7.70;99.90;;;;;;5079869;28;19924;-75
2023/04/11 05:31:26;;;;;;;;;;;7.80;99.90;;;;;;5078347;28;19924;-76
2023/04/11 05:33:52;;;;;;;;;;;7.70;99.90;;;;;;5078987;28;19924;-76
2023/04/11 05:36:17;;;;;;;;;;;7.80;99.90;;;;;;5078767;28;19928;-76
2023/04/11 05:38:43;;;;;;;;;;;7.80;99.90;;;;;;5080099;28;19950;-76
2023/04/11 05:41:09;;;;;;;;;;;7.80;99.90;;;;;;5079856;28;19935;-75
2023/04/11 05:43:35;;;;;;;;;;;7.90;99.90;;;;;;5076252;28;19924;-76
2023/04/11 05:46:01;;;;;;;;;;;7.80;99.90;;;;;;5067182;28;19931;-76
2023/04/11 05:48:27;;;;;;;;;;;7.90;99.90;;;;;;5073606;28;19924;-76
2023/04/11 05:50:52;;;;;;;;;;;7.90;99.90;;;;;;5073895;28;19947;-74
2023/04/11 05:53:18;;;;;;;;;;;8.00;99.90;;;;;;5091234;28;19932;-74
2023/04/11 05:55:44;;;;;;;;;;;8.00;99.90;;;;;;5074257;28;19935;-73
2023/04/11 05:58:09;;;;;;;;;;;8.10;99.90;;;;;;5056879;28;19924;-73
2023/04/11 06:00:37;;;;;;;;;;;8.10;99.90;;;;;;5091176;28;20411;-76
2023/04/11 06:03:04;;;;;;;;;;;8.10;99.90;;;;;;5091138;28;19975;-76
2023/04/11 06:05:30;;;;;;;;;;;8.20;99.90;;;;;;5070875;28;19924;-76
2023/04/11 06:07:59;;;;;;;;;;;8.20;99.90;;;;;;5074446;28;20286;-76
2023/04/11 06:10:25;;;;;;;;;;;8.20;99.90;;;;;;5073725;28;20306;-76
2023/04/11 06:12:51;;;;;;;;;;;8.20;99.90;;;;;;5074108;28;19935;-76
2023/04/11 06:15:17;;;;;;;;;;;8.20;99.90;;;;;;5074434;28;19971;-76
2023/04/11 06:17:43;;;;;;;;;;;8.20;99.90;;;;;;5077858;28;20361;-76
2023/04/11 06:20:09;;;;;;;;;;;8.30;99.90;;;;;;5095268;28;19946;-76
2023/04/11 06:22:35;;;;;;;;;;;8.30;99.90;;;;;;5075844;28;19924;-76
2023/04/11 06:25:00;;;;;;;;;;;8.30;99.90;;;;;;5090786;28;19997;-76
2023/04/11 06:27:26;;;;;;;;;;;8.30;99.90;;;;;;5075736;28;20058;-74
2023/04/11 06:29:52;;;;;;;;;;;8.30;99.90;;;;;;5079052;28;19932;-74
2023/04/11 06:32:18;;;;;;;;;;;8.30;99.90;;;;;;5079224;28;19928;-74
2023/04/11 06:34:44;;;;;;;;;;;8.20;99.90;;;;;;5057186;28;19928;-74
2023/04/11 06:37:09;;;;;;;;;;;8.30;99.90;;;;;;5056369;28;19969;-74
2023/04/11 06:39:35;;;;;;;;;;;8.30;99.90;;;;;;5072864;28;19968;-74
2023/04/11 06:42:01;;;;;;;;;;;8.30;99.90;;;;;;5071428;28;19969;-74
2023/04/11 06:44:27;;;;;;;;;;;8.30;99.90;;;;;;5077702;28;19924;-74
2023/04/11 06:46:53;;;;;;;;;;;8.40;99.90;;;;;;5082047;28;19947;-74
2023/04/11 06:49:19;;;;;;;;;;;8.40;99.90;;;;;;5077845;28;19956;-74
2023/04/11 06:51:49;;;;;;;;;;;8.40;99.90;;;;;;5074058;28;19924;-74
2023/04/11 06:54:15;;;;;;;;;;;8.40;99.90;;;;;;5077646;28;19935;-74
2023/04/11 06:56:41;;;;;;;;;;;8.50;99.90;;;;;;5075063;28;20022;-74
2023/04/11 06:59:06;;;;;;;;;;;8.60;99.90;;;;;;5060701;28;19978;-74
2023/04/11 07:01:37;;;;;;;;;;;8.60;99.90;;;;;;5077296;28;19928;-74
2023/04/11 07:04:03;;;;;;;;;;;8.70;99.90;;;;;;5077130;28;19946;-73
2023/04/11 07:06:30;;;;;;;;;;;8.70;99.90;;;;;;5092318;28;19924;-74
2023/04/11 07:08:56;;;;;;;;;;;8.80;99.90;;;;;;5094773;28;19932;-74
2023/04/11 07:11:22;;;;;;;;;;;8.80;99.90;;;;;;5058825;28;19928;-74
2023/04/11 07:13:48;;;;;;;;;;;8.80;99.90;;;;;;5076765;28;19993;-74
2023/04/11 07:16:13;;;;;;;;;;;8.90;99.90;;;;;;5060521;28;20619;-74
2023/04/11 07:18:39;;;;;;;;;;;8.90;99.90;;;;;;5059664;28;19963;-73
2023/04/11 07:21:05;;;;;;;;;;;8.90;99.90;;;;;;5090972;28;20387;-74
2023/04/11 07:23:31;;;;;;;;;;;8.90;99.90;;;;;;5075352;28;19947;-74
2023/04/11 07:25:56;;;;;;;;;;;9.00;99.90;;;;;;5061641;28;19935;-74
2023/04/11 07:28:22;;;;;;;;;;;9.10;99.90;;;;;;5080559;28;19935;-74
2023/04/11 07:30:48;;;;;;;;;;;9.10;99.90;;;;;;5081576;28;19947;-74
2023/04/11 07:33:13;;;;;;;;;;;9.30;99.90;;;;;;5065283;28;19924;-74
2023/04/11 07:35:39;;;;;;;;;;;9.30;99.90;;;;;;5062775;28;19934;-75
2023/04/11 07:38:05;;;;;;;;;;;9.30;99.90;;;;;;5074278;28;19924;-75
2023/04/11 07:40:30;;;;;;;;;;;9.50;99.90;;;;;;5077963;28;20453;-75
2023/04/11 07:42:56;;;;;;;;;;;9.80;99.90;;;;;;5061129;28;20458;-75
2023/04/11 07:45:22;;;;;;;;;;;10.00;99.90;;;;;;5078469;28;19974;-76
2023/04/11 07:47:47;;;;;;;;;;;10.00;99.90;;;;;;5081617;28;19924;-76
2023/04/11 07:50:13;;;;;;;;;;;10.00;99.90;;;;;;5073831;28;19983;-76
2023/04/11 07:52:39;;;;;;;;;;;9.90;99.90;;;;;;5094151;28;19936;-75
2023/04/11 07:55:04;;;;;;;;;;;10.00;99.90;;;;;;5078777;28;20008;-75
2023/04/11 07:57:30;;;;;;;;;;;10.10;99.90;;;;;;5063759;28;20019;-75
2023/04/11 07:59:59;;;;;;;;;;;10.10;99.90;;;;;;5093176;28;19924;-75
2023/04/11 08:02:24;;;;;;;;;;;10.10;99.90;;;;;;5074963;28;19933;-75
2023/04/11 08:04:51;;;;;;;;;;;10.20;99.90;;;;;;5078873;28;20349;-76
2023/04/11 08:07:16;;;;;;;;;;;10.40;99.90;;;;;;5080891;28;19945;-75
2023/04/11 08:09:42;;;;;;;;;;;10.80;99.90;;;;;;5075994;28;20010;-77
2023/04/11 08:12:08;;;;;;;;;;;11.40;99.90;;;;;;5093559;28;19928;-75
2023/04/11 08:14:34;;;;;;;;;;;11.90;99.90;;;;;;5074342;28;19931;-76
2023/04/11 08:17:00;;;;;;;;;;;12.10;99.90;;;;;;5096954;28;19934;-76
2023/04/11 08:19:26;;;;;;;;;;;12.50;99.90;;;;;;5057611;28;19924;-76
2023/04/11 08:21:51;;;;;;;;;;;12.60;99.90;;;;;;5092193;28;19983;-76
2023/04/11 08:24:17;;;;;;;;;;;12.40;99.90;;;;;;5057542;28;19932;-76
2023/04/11 08:26:43;;;;;;;;;;;12.00;99.90;;;;;;5071125;28;19954;-76
2023/04/11 08:29:11;;;;;;;;;;;11.70;99.90;;;;;;5074173;28;19965;-76
2023/04/11 08:31:41;;;;;;;;;;;11.30;99.90;;;;;;5079943;28;19924;-76
2023/04/11 08:34:06;;;;;;;;;;;10.90;99.90;;;;;;5078316;28;19969;-75
2023/04/11 08:36:32;;;;;;;;;;;10.60;99.90;;;;;;5078513;28;19932;-76
2023/04/11 08:38:59;;;;;;;;;;;10.30;99.90;;;;;;5063815;28;19959;-77
2023/04/11 08:41:29;;;;;;;;;;;10.00;99.90;;;;;;5063900;28;19924;-76
2023/04/11 08:43:55;;;;;;;;;;;9.90;99.90;;;;;;5094475;28;19932;-77
2023/04/11 08:46:20;;;;;;;;;;;9.70;99.90;;;;;;5074097;28;20356;-77
2023/04/11 08:48:46;;;;;;;;;;;10.10;99.90;;;;;;5057045;28;19999;-77
2023/04/11 08:51:13;;;;;;;;;;;10.50;99.90;;;;;;5091569;28;19932;-77
2023/04/11 08:53:39;;;;;;;;;;;10.80;99.90;;;;;;5072726;28;19924;-77
2023/04/11 08:56:05;;;;;;;;;;;11.30;99.90;;;;;;5073788;28;20561;-76
2023/04/11 08:58:31;;;;;;;;;;;11.90;99.90;;;;;;5057050;28;19956;-77
2023/04/11 09:01:05;;;;;;;;;;;12.10;99.90;;;;;;5074644;28;19928;-77
2023/04/11 09:03:48;;;;;;;;;;;12.00;99.90;;;;;;5074482;28;19964;-75
2023/04/11 09:06:13;;;;;;;;;;;11.20;99.90;;;;;;5091135;28;20057;-75
2023/04/11 09:08:39;;;;;;;;;;;10.50;99.90;;;;;;5056390;28;19966;-76
2023/04/11 09:11:04;;;;;;;;;;;10.00;99.90;;;;;;5073236;28;19931;-76
2023/04/11 09:13:30;;;;;;;;;;;9.70;99.90;;;;;;5074639;28;20030;-76
2023/04/11 09:16:15;;;;;;;;;;;9.50;99.90;;;;;;5054660;28;19924;-76
2023/04/11 09:18:41;;;;;;;;;;;9.30;99.90;;;;;;5093473;28;19924;-76
2023/04/11 09:21:08;;;;;;;;;;;9.10;99.90;;;;;;5074226;28;19988;-76
2023/04/11 09:23:34;;;;;;;;;;;9.00;99.90;;;;;;5088490;28;19936;-75
2023/04/11 09:26:00;;;;;;;;;;;9.20;99.90;;;;;;5054379;28;19924;-76
2023/04/11 09:28:26;;;;;;;;;;;9.50;99.90;;;;;;5073741;28;19924;-76
2023/04/11 09:30:53;;;;;;;;;;;9.60;99.90;;;;;;5074318;28;19964;-76
2023/04/11 09:33:21;;;;;;;;;;;9.70;99.90;;;;;;5074237;28;19928;-76
2023/04/11 09:35:47;;;;;;;;;;;9.90;99.90;;;;;;5087968;28;19928;-76
2023/04/11 09:38:13;;;;;;;;;;;9.90;99.90;;;;;;5055694;28;19950;-76
2023/04/11 09:40:42;;;;;;;;;;;9.90;99.90;;;;;;5073679;28;20019;-76
2023/04/11 09:43:08;;;;;;;;;;;9.70;99.90;;;;;;5074310;28;19932;-76
2023/04/11 09:45:33;;;;;;;;;;;9.70;99.90;;;;;;5075761;28;19932;-76
2023/04/11 09:47:59;;;;;;;;;;;10.30;99.90;;;;;;5093733;28;19924;-76
2023/04/11 09:50:25;;;;;;;;;;;11.20;99.90;;;;;;5073524;28;19943;-76
2023/04/11 09:52:51;;;;;;;;;;;11.90;99.90;;;;;;5073551;28;19945;-76
2023/04/11 09:55:18;;;;;;;;;;;11.80;99.90;;;;;;5071569;28;19928;-76
2023/04/11 09:57:45;;;;;;;;;;;11.50;99.90;;;;;;5105922;28;19974;-75
2023/04/11 10:00:18;;;;;;;;;;;11.10;99.90;;;;;;5089398;28;20446;-76
2023/04/11 10:02:44;;;;;;;;;;;10.70;99.90;;;;;;5084752;28;19928;-76
2023/04/11 10:05:11;;;;;;;;;;;10.30;99.90;;;;;;5085679;28;19928;-77
2023/04/11 10:08:03;;;;;;;;;;;10.50;99.90;;;;;;5087368;28;19933;-78
2023/04/11 10:10:29;;;;;;;;;;;10.70;99.90;;;;;;5064237;28;20307;-78
2023/04/11 10:12:55;;;;;;;;;;;11.10;99.90;;;;;;5073308;28;19930;-77
2023/04/11 10:15:21;;;;;;;;;;;11.20;99.90;;;;;;5057608;28;19931;-77
2023/04/11 10:18:06;;;;;;;;;;;11.10;99.90;;;;;;5060613;28;19939;-77
2023/04/11 10:20:36;;;;;;;;;;;10.90;99.90;;;;;;5098379;28;19924;-77
2023/04/11 10:23:02;;;;;;;;;;;10.90;99.90;;;;;;5081910;28;20389;-77
2023/04/11 10:25:28;;;;;;;;;;;10.80;99.90;;;;;;5095837;28;19955;-77
2023/04/11 10:28:02;;;;;;;;;;;10.70;99.90;;;;;;5061884;28;19927;-77
2023/04/11 10:30:40;;;;;;;;;;;10.50;99.90;;;;;;5073931;28;19932;-76
2023/04/11 10:33:10;;;;;;;;;;;10.30;99.90;;;;;;5094255;28;20383;-77
2023/04/11 10:35:54;;;;;;;;;;;10.30;99.90;;;;;;5055542;28;19931;-77
2023/04/11 10:38:35;;;;;;;;;;;10.50;99.90;;;;;;5088793;28;19928;-72
2023/04/11 10:41:17;;;;;;;;;;;9.90;99.90;;;;;;5091289;28;19928;-74
2023/04/11 10:43:43;;;;;;;;;;;9.30;99.90;;;;;;5071151;28;19932;-75
2023/04/11 10:46:23;;;;;;;;;;;9.00;99.90;;;;;;5074108;28;19931;-76
2023/04/11 10:49:15;;;;;;;;;;;8.90;99.90;;;;;;5095896;28;19955;-75
2023/04/11 10:51:40;;;;;;;;;;;8.80;99.90;;;;;;5088162;28;19988;-76
2023/04/11 10:54:22;;;;;;;;;;;8.80;99.90;;;;;;5094960;28;20044;-76
2023/04/11 10:56:49;;;;;;;;;;;9.00;99.90;;;;;;5080730;28;20409;-77
2023/04/11 10:59:30;;;;;;;;;;;9.30;99.90;;;;;;5096636;28;19928;-76
2023/04/11 11:01:56;;;;;;;;;;;9.50;99.90;;;;;;5098089;28;19924;-77
2023/04/11 11:04:31;;;;;;;;;;;9.70;99.90;;;;;;5081198;28;19924;-77
2023/04/11 11:06:58;;;;;;;;;;;9.90;99.90;;;;;;5076975;28;19930;-77
2023/04/11 11:09:23;;;;;;;;;;;10.20;99.90;;;;;;5079039;28;19963;-77
2023/04/11 11:12:05;;;;;;;;;;;10.40;99.90;;;;;;5079385;28;19936;-77
2023/04/11 11:14:30;;;;;;;;;;;10.50;99.90;;;;;;5078680;28;19929;-76
2023/04/11 11:16:56;;;;;;;;;;;10.60;99.90;;;;;;5057547;28;19935;-77
2023/04/11 11:19:22;;;;;;;;;;;10.50;99.90;;;;;;5074357;28;19985;-76
2023/04/11 11:21:49;;;;;;;;;;;10.50;99.90;;;;;;5058080;28;19924;-77
2023/04/11 11:24:22;;;;;;;;;;;10.50;99.90;;;;;;5073219;28;19946;-77
2023/04/11 11:26:49;;;;;;;;;;;10.40;99.90;;;;;;5067144;28;19932;-77
2023/04/11 11:29:15;;;;;;;;;;;10.40;99.90;;;;;;5091097;28;19924;-77
2023/04/11 11:31:44;;;;;;;;;;;10.60;99.90;;;;;;5078265;28;19939;-77
2023/04/11 11:34:10;;;;;;;;;;;11.00;99.90;;;;;;5072056;28;19924;-77
2023/04/11 11:36:37;;;;;;;;;;;11.30;99.90;;;;;;5073188;28;19949;-75
2023/04/11 11:39:04;;;;;;;;;;;11.50;99.90;;;;;;5073702;28;19960;-75
2023/04/11 11:41:30;;;;;;;;;;;11.60;99.90;;;;;;5074440;28;19943;-76
2023/04/11 11:43:56;;;;;;;;;;;11.50;99.90;;;;;;5056185;28;19928;-76
2023/04/11 11:46:21;;;;;;;;;;;11.40;99.90;;;;;;5056779;28;19950;-76
2023/04/11 11:48:58;;;;;;;;;;;11.30;99.90;;;;;;5092100;28;19928;-76
2023/04/11 11:51:23;;;;;;;;;;;11.30;99.90;;;;;;5096500;28;20113;-76
2023/04/11 11:54:08;;;;;;;;;;;11.30;99.90;;;;;;5063261;28;19949;-77
2023/04/11 11:56:34;;;;;;;;;;;11.10;99.90;;;;;;5096260;28;19995;-76
2023/04/11 11:59:00;;;;;;;;;;;10.90;99.90;;;;;;5090780;28;20014;-76
2023/04/11 12:01:25;;;;;;;;;;;10.70;99.90;;;;;;5073508;28;20211;-76
2023/04/11 12:03:52;;;;;;;;;;;10.50;99.90;;;;;;5075040;28;19938;-77
2023/04/11 12:06:18;;;;;;;;;;;10.40;99.90;;;;;;5091677;28;19924;-76
2023/04/11 12:08:49;;;;;;;;;;;10.50;99.90;;;;;;5091304;28;19924;-76
2023/04/11 12:11:15;;;;;;;;;;;10.60;99.90;;;;;;5080569;28;19927;-76
2023/04/11 12:13:41;;;;;;;;;;;10.70;99.90;;;;;;5097871;28;19924;-76
2023/04/11 12:16:06;;;;;;;;;;;10.80;99.90;;;;;;5079424;28;20027;-76
2023/04/11 12:18:32;;;;;;;;;;;10.70;99.90;;;;;;5063046;28;20374;-76
2023/04/11 12:20:58;;;;;;;;;;;10.80;99.90;;;;;;5092427;28;19941;-77
2023/04/11 12:23:23;;;;;;;;;;;11.00;99.90;;;;;;5089855;28;19963;-77
2023/04/11 12:25:49;;;;;;;;;;;11.00;99.90;;;;;;5057086;28;19928;-77
2023/04/11 12:28:15;;;;;;;;;;;11.10;99.90;;;;;;5056441;28;20726;-77
2023/04/11 12:30:40;;;;;;;;;;;11.30;99.90;;;;;;5072426;28;19991;-77
2023/04/11 12:33:06;;;;;;;;;;;11.70;99.90;;;;;;5073991;28;19935;-77
2023/04/11 12:35:31;;;;;;;;;;;12.00;99.90;;;;;;5074000;28;19966;-77
2023/04/11 12:37:57;;;;;;;;;;;12.20;99.90;;;;;;5079473;28;19939;-76
2023/04/11 12:40:23;;;;;;;;;;;12.40;99.90;;;;;;5079026;28;20954;-77
2023/04/11 12:42:49;;;;;;;;;;;12.70;99.90;;;;;;5088773;28;19990;-77
2023/04/11 12:45:15;;;;;;;;;;;12.90;99.90;;;;;;5071278;28;19924;-76
2023/04/11 12:47:41;;;;;;;;;;;13.10;99.90;;;;;;5072976;28;19924;-76
2023/04/11 12:50:07;;;;;;;;;;;12.90;98.60;;;;;;5076423;28;20003;-77
2023/04/11 12:52:33;;;;;;;;;;;12.90;99.90;;;;;;5095874;28;19934;-76
2023/04/11 12:54:59;;;;;;;;;;;12.90;98.20;;;;;;5091811;28;20019;-76
2023/04/11 12:57:24;;;;;;;;;;;13.10;96.30;;;;;;5090723;28;19928;-77
2023/04/11 12:59:50;;;;;;;;;;;13.20;97.50;;;;;;5072800;28;20339;-77
2023/04/11 13:02:16;;;;;;;;;;;13.30;95.20;;;;;;5091873;28;19924;-77
2023/04/11 13:04:42;;;;;;;;;;;13.30;96.70;;;;;;5089766;28;20347;-77
2023/04/11 13:07:08;;;;;;;;;;;13.40;93.50;;;;;;5073653;28;20267;-76
2023/04/11 13:09:35;;;;;;;;;;;13.30;91.70;;;;;;5071504;28;20035;-76
2023/04/11 13:12:00;;;;;;;;;;;13.20;94.00;;;;;;5073888;28;19927;-76
2023/04/11 13:14:26;;;;;;;;;;;13.20;94.00;;;;;;5089405;28;19928;-76
2023/04/11 13:16:52;;;;;;;;;;;13.20;91.60;;;;;;5091175;28;19935;-76
2023/04/11 13:19:18;;;;;;;;;;;13.10;90.90;;;;;;5072875;28;19966;-76
2023/04/11 13:21:43;;;;;;;;;;;12.90;93.70;;;;;;5073313;28;19924;-76
2023/04/11 13:24:09;;;;;;;;;;;12.60;91.20;;;;;;5055189;28;19934;-76
2023/04/11 13:26:34;;;;;;;;;;;12.50;94.00;;;;;;5092646;28;19924;-76
2023/04/11 13:29:00;;;;;;;;;;;12.60;93.60;;;;;;5075628;28;19927;-77
2023/04/11 13:31:27;;;;;;;;;;;12.60;93.30;;;;;;5077560;28;20018;-78
2023/04/11 13:33:55;;;;;;;;;;;12.50;92.40;;;;;;5094970;28;19928;-77
2023/04/11 13:36:20;;;;;;;;;;;12.50;94.80;;;;;;5077859;28;19924;-77
2023/04/11 13:38:46;;;;;;;;;;;12.40;93.40;;;;;;5061674;28;19924;-77
2023/04/11 13:41:12;;;;;;;;;;;12.30;94.00;;;;;;5078710;28;19956;-77
2023/04/11 13:43:38;;;;;;;;;;;12.20;92.40;;;;;;5047606;28;19928;-77
2023/04/11 13:46:03;;;;;;;;;;;12.20;93.10;;;;;;5058129;28;19934;-77
2023/04/11 13:48:29;;;;;;;;;;;12.40;95.90;;;;;;5077872;28;19950;-76
2023/04/11 13:50:56;;;;;;;;;;;12.60;93.00;;;;;;5077777;28;19963;-77
2023/04/11 13:53:22;;;;;;;;;;;12.50;90.10;;;;;;5081792;28;19924;-77
2023/04/11 13:55:48;;;;;;;;;;;12.50;92.20;;;;;;5083514;28;19987;-77
2023/04/11 13:58:14;;;;;;;;;;;12.60;91.70;;;;;;5083195;28;19974;-77
2023/04/11 14:00:39;;;;;;;;;;;12.70;89.60;;;;;;5059059;28;20291;-77
2023/04/11 14:03:05;;;;;;;;;;;12.70;88.20;;;;;;5094043;28;20284;-78
2023/04/11 14:05:34;;;;;;;;;;;12.70;90.20;;;;;;5062860;28;19928;-77
2023/04/11 14:07:59;;;;;;;;;;;12.60;86.50;;;;;;5098777;28;19930;-78
2023/04/11 14:10:25;;;;;;;;;;;12.70;88.70;;;;;;5097425;28;19963;-77
2023/04/11 14:12:51;;;;;;;;;;;12.80;90.10;;;;;;5062831;28;20328;-78
2023/04/11 14:15:17;;;;;;;;;;;12.80;90.00;;;;;;5081891;28;19928;-78
2023/04/11 14:17:45;;;;;;;;;;;13.00;90.30;;;;;;5065040;28;20018;-78
2023/04/11 14:20:11;;;;;;;;;;;13.20;90.90;;;;;;5099522;28;20495;-77
2023/04/11 14:22:37;;;;;;;;;;;13.40;91.00;;;;;;5061616;28;19925;-77